sensor_id;sensor_type;location;lat;lon;timestamp;P1;durP1;ratioP1;P2;durP2;ratioP2
15990;SDS011;8100;50.994;4.538;2022-07-29T00:01:23;0.77;;;0.75;;
15990;SDS011;8100;50.994;4.538;2022-07-29T00:04:10;1.08;;;0.80;;
15990;SDS011;8100;50.994;4.538;2022-07-29T00:06:58;2.78;;;0.70;;
15990;SDS011;8100;50.994;4.538;2022-07-29T00:09:45;0.85;;;0.70;;
15990;SDS011;8100;50.994;4.538;2022-07-29T00:12:34;3.08;;;0.88;;
15990;SDS011;8100;50.994;4.538;2022-07-29T00:15:21;1.30;;;0.52;;
15990;SDS011;8100;50.994;4.538;2022-07-29T00:18:08;2.45;;;0.85;;
15990;SDS011;8100;50.994;4.538;2022-07-29T00:20:56;2.20;;;0.75;;
15990;SDS011;8100;50.994;4.538;2022-07-29T00:23:43;1.20;;;0.68;;
15990;SDS011;8100;50.994;4.538;2022-07-29T00:26:30;2.05;;;0.90;;
15990;SDS011;8100;50.994;4.538;2022-07-29T00:29:19;1.17;;;0.80;;
15990;SDS011;8100;50.994;4.538;2022-07-29T00:32:06;1.40;;;0.70;;
15990;SDS011;8100;50.994;4.538;2022-07-29T00:34:53;1.08;;;0.60;;
15990;SDS011;8100;50.994;4.538;2022-07-29T00:37:58;2.20;;;0.60;;
15990;SDS011;8100;50.994;4.538;2022-07-29T00:40:46;1.25;;;0.85;;
15990;SDS011;8100;50.994;4.538;2022-07-29T00:43:33;1.63;;;0.70;;
15990;SDS011;8100;50.994;4.538;2022-07-29T00:46:22;1.50;;;0.93;;
15990;SDS011;8100;50.994;4.538;2022-07-29T00:49:09;1.10;;;0.80;;
15990;SDS011;8100;50.994;4.538;2022-07-29T00:51:56;2.75;;;0.80;;
15990;SDS011;8100;50.994;4.538;2022-07-29T00:54:44;1.00;;;0.60;;
15990;SDS011;8100;50.994;4.538;2022-07-29T00:57:31;1.73;;;0.90;;
15990;SDS011;8100;50.994;4.538;2022-07-29T01:00:19;2.45;;;0.70;;
15990;SDS011;8100;50.994;4.538;2022-07-29T01:03:10;1.00;;;0.73;;
15990;SDS011;8100;50.994;4.538;2022-07-29T01:05:57;0.88;;;0.70;;
15990;SDS011;8100;50.994;4.538;2022-07-29T01:08:46;1.50;;;0.80;;
15990;SDS011;8100;50.994;4.538;2022-07-29T01:11:34;0.93;;;0.80;;
15990;SDS011;8100;50.994;4.538;2022-07-29T01:14:22;2.25;;;0.70;;
15990;SDS011;8100;50.994;4.538;2022-07-29T01:17:10;0.70;;;0.70;;
15990;SDS011;8100;50.994;4.538;2022-07-29T01:20:06;0.85;;;0.70;;
15990;SDS011;8100;50.994;4.538;2022-07-29T01:23:07;0.88;;;0.50;;
15990;SDS011;8100;50.994;4.538;2022-07-29T01:29:23;1.23;;;0.60;;
15990;SDS011;8100;50.994;4.538;2022-07-29T01:32:15;0.80;;;0.60;;
15990;SDS011;8100;50.994;4.538;2022-07-29T01:35:07;1.42;;;0.75;;
15990;SDS011;8100;50.994;4.538;2022-07-29T01:38:04;2.42;;;0.82;;
15990;SDS011;8100;50.994;4.538;2022-07-29T01:40:57;2.35;;;0.95;;
15990;SDS011;8100;50.994;4.538;2022-07-29T01:43:49;1.88;;;0.80;;
15990;SDS011;8100;50.994;4.538;2022-07-29T01:46:45;0.75;;;0.65;;
15990;SDS011;8100;50.994;4.538;2022-07-29T01:49:39;2.58;;;1.00;;
15990;SDS011;8100;50.994;4.538;2022-07-29T01:52:31;0.82;;;0.60;;
15990;SDS011;8100;50.994;4.538;2022-07-29T01:55:24;0.90;;;0.80;;
15990;SDS011;8100;50.994;4.538;2022-07-29T01:58:14;2.30;;;0.98;;
15990;SDS011;8100;50.994;4.538;2022-07-29T02:01:04;2.00;;;0.88;;
15990;SDS011;8100;50.994;4.538;2022-07-29T02:03:55;1.50;;;0.80;;
15990;SDS011;8100;50.994;4.538;2022-07-29T02:06:43;1.23;;;0.90;;
15990;SDS011;8100;50.994;4.538;2022-07-29T02:09:32;1.40;;;0.80;;
15990;SDS011;8100;50.994;4.538;2022-07-29T02:12:22;0.95;;;0.80;;
15990;SDS011;8100;50.994;4.538;2022-07-29T02:15:12;1.10;;;0.70;;
15990;SDS011;8100;50.994;4.538;2022-07-29T02:18:02;0.73;;;0.60;;
15990;SDS011;8100;50.994;4.538;2022-07-29T02:20:55;1.95;;;0.80;;
15990;SDS011;8100;50.994;4.538;2022-07-29T02:23:44;2.15;;;0.75;;
15990;SDS011;8100;50.994;4.538;2022-07-29T02:26:34;1.83;;;1.02;;
15990;SDS011;8100;50.994;4.538;2022-07-29T02:29:23;1.83;;;0.90;;
15990;SDS011;8100;50.994;4.538;2022-07-29T02:32:13;2.03;;;0.85;;
15990;SDS011;8100;50.994;4.538;2022-07-29T02:35:02;1.00;;;0.70;;
15990;SDS011;8100;50.994;4.538;2022-07-29T02:37:52;2.08;;;0.80;;
15990;SDS011;8100;50.994;4.538;2022-07-29T02:40:54;1.08;;;0.68;;
15990;SDS011;8100;50.994;4.538;2022-07-29T02:43:41;3.10;;;0.90;;
15990;SDS011;8100;50.994;4.538;2022-07-29T02:46:32;1.15;;;0.80;;
15990;SDS011;8100;50.994;4.538;2022-07-29T02:49:26;1.15;;;0.80;;
15990;SDS011;8100;50.994;4.538;2022-07-29T02:52:22;1.40;;;0.95;;
15990;SDS011;8100;50.994;4.538;2022-07-29T02:55:15;1.05;;;0.95;;
15990;SDS011;8100;50.994;4.538;2022-07-29T02:58:05;1.35;;;0.80;;
15990;SDS011;8100;50.994;4.538;2022-07-29T03:01:00;1.25;;;0.82;;
15990;SDS011;8100;50.994;4.538;2022-07-29T03:03:50;1.63;;;0.80;;
15990;SDS011;8100;50.994;4.538;2022-07-29T03:06:39;1.10;;;0.80;;
15990;SDS011;8100;50.994;4.538;2022-07-29T03:09:28;0.90;;;0.70;;
15990;SDS011;8100;50.994;4.538;2022-07-29T03:12:18;1.13;;;0.80;;
15990;SDS011;8100;50.994;4.538;2022-07-29T03:15:06;2.10;;;0.90;;
15990;SDS011;8100;50.994;4.538;2022-07-29T03:17:55;0.98;;;0.80;;
15990;SDS011;8100;50.994;4.538;2022-07-29T03:20:42;2.15;;;0.77;;
15990;SDS011;8100;50.994;4.538;2022-07-29T03:23:30;3.13;;;1.05;;
15990;SDS011;8100;50.994;4.538;2022-07-29T03:26:17;1.15;;;1.02;;
15990;SDS011;8100;50.994;4.538;2022-07-29T03:29:07;1.77;;;0.85;;
15990;SDS011;8100;50.994;4.538;2022-07-29T03:31:54;1.33;;;1.00;;
15990;SDS011;8100;50.994;4.538;2022-07-29T03:34:42;1.05;;;0.77;;
15990;SDS011;8100;50.994;4.538;2022-07-29T03:37:29;1.00;;;0.80;;
15990;SDS011;8100;50.994;4.538;2022-07-29T03:40:18;0.93;;;0.70;;
15990;SDS011;8100;50.994;4.538;2022-07-29T03:43:09;1.88;;;1.08;;
15990;SDS011;8100;50.994;4.538;2022-07-29T03:45:58;1.70;;;1.00;;
15990;SDS011;8100;50.994;4.538;2022-07-29T03:48:48;1.30;;;0.98;;
15990;SDS011;8100;50.994;4.538;2022-07-29T03:51:41;1.63;;;1.38;;
15990;SDS011;8100;50.994;4.538;2022-07-29T03:54:29;2.30;;;1.02;;
15990;SDS011;8100;50.994;4.538;2022-07-29T03:57:16;1.05;;;0.93;;
15990;SDS011;8100;50.994;4.538;2022-07-29T04:00:05;1.27;;;0.98;;
15990;SDS011;8100;50.994;4.538;2022-07-29T04:02:55;1.45;;;1.27;;
15990;SDS011;8100;50.994;4.538;2022-07-29T04:05:43;1.20;;;1.10;;
15990;SDS011;8100;50.994;4.538;2022-07-29T04:08:30;2.50;;;1.10;;
15990;SDS011;8100;50.994;4.538;2022-07-29T04:11:17;1.55;;;0.90;;
15990;SDS011;8100;50.994;4.538;2022-07-29T04:14:05;3.25;;;1.08;;
15990;SDS011;8100;50.994;4.538;2022-07-29T04:16:52;2.33;;;1.10;;
15990;SDS011;8100;50.994;4.538;2022-07-29T04:19:40;2.45;;;1.40;;
15990;SDS011;8100;50.994;4.538;2022-07-29T04:22:27;1.70;;;0.90;;
15990;SDS011;8100;50.994;4.538;2022-07-29T04:25:15;1.67;;;1.05;;
15990;SDS011;8100;50.994;4.538;2022-07-29T04:28:02;2.20;;;1.20;;
15990;SDS011;8100;50.994;4.538;2022-07-29T04:30:50;1.88;;;1.10;;
15990;SDS011;8100;50.994;4.538;2022-07-29T04:33:37;1.90;;;1.20;;
15990;SDS011;8100;50.994;4.538;2022-07-29T04:36:25;1.27;;;1.08;;
15990;SDS011;8100;50.994;4.538;2022-07-29T04:39:13;1.77;;;1.00;;
15990;SDS011;8100;50.994;4.538;2022-07-29T04:42:00;0.80;;;0.80;;
15990;SDS011;8100;50.994;4.538;2022-07-29T04:44:47;1.33;;;0.93;;
15990;SDS011;8100;50.994;4.538;2022-07-29T04:47:34;2.03;;;1.20;;
15990;SDS011;8100;50.994;4.538;2022-07-29T04:50:22;1.88;;;1.17;;
15990;SDS011;8100;50.994;4.538;2022-07-29T04:53:10;2.00;;;1.08;;
15990;SDS011;8100;50.994;4.538;2022-07-29T04:55:58;1.27;;;1.10;;
15990;SDS011;8100;50.994;4.538;2022-07-29T04:58:45;2.63;;;1.02;;
15990;SDS011;8100;50.994;4.538;2022-07-29T05:01:32;2.50;;;1.10;;
15990;SDS011;8100;50.994;4.538;2022-07-29T05:04:20;2.42;;;1.10;;
15990;SDS011;8100;50.994;4.538;2022-07-29T05:07:07;3.25;;;0.98;;
15990;SDS011;8100;50.994;4.538;2022-07-29T05:09:55;3.95;;;1.27;;
15990;SDS011;8100;50.994;4.538;2022-07-29T05:12:43;1.20;;;1.00;;
15990;SDS011;8100;50.994;4.538;2022-07-29T05:15:30;1.75;;;1.02;;
15990;SDS011;8100;50.994;4.538;2022-07-29T05:18:17;1.42;;;1.13;;
15990;SDS011;8100;50.994;4.538;2022-07-29T05:21:04;2.33;;;1.30;;
15990;SDS011;8100;50.994;4.538;2022-07-29T05:23:52;1.40;;;1.20;;
15990;SDS011;8100;50.994;4.538;2022-07-29T05:26:40;1.55;;;1.27;;
15990;SDS011;8100;50.994;4.538;2022-07-29T05:29:28;2.63;;;1.20;;
15990;SDS011;8100;50.994;4.538;2022-07-29T05:32:15;3.15;;;1.20;;
15990;SDS011;8100;50.994;4.538;2022-07-29T05:35:02;2.50;;;1.33;;
15990;SDS011;8100;50.994;4.538;2022-07-29T05:37:50;3.58;;;1.30;;
15990;SDS011;8100;50.994;4.538;2022-07-29T05:40:37;3.25;;;1.27;;
15990;SDS011;8100;50.994;4.538;2022-07-29T05:43:25;2.10;;;1.40;;
15990;SDS011;8100;50.994;4.538;2022-07-29T05:46:12;2.03;;;1.15;;
15990;SDS011;8100;50.994;4.538;2022-07-29T05:49:00;1.50;;;1.23;;
15990;SDS011;8100;50.994;4.538;2022-07-29T05:51:48;1.17;;;1.05;;
15990;SDS011;8100;50.994;4.538;2022-07-29T05:54:36;2.03;;;1.48;;
15990;SDS011;8100;50.994;4.538;2022-07-29T05:57:23;1.70;;;1.40;;
15990;SDS011;8100;50.994;4.538;2022-07-29T06:00:13;2.58;;;1.23;;
15990;SDS011;8100;50.994;4.538;2022-07-29T06:03:00;4.30;;;1.70;;
15990;SDS011;8100;50.994;4.538;2022-07-29T06:05:48;2.92;;;1.30;;
15990;SDS011;8100;50.994;4.538;2022-07-29T06:08:35;1.75;;;1.27;;
15990;SDS011;8100;50.994;4.538;2022-07-29T06:11:23;3.22;;;1.67;;
15990;SDS011;8100;50.994;4.538;2022-07-29T06:14:10;2.30;;;1.60;;
15990;SDS011;8100;50.994;4.538;2022-07-29T06:16:59;1.70;;;1.17;;
15990;SDS011;8100;50.994;4.538;2022-07-29T06:19:46;2.30;;;1.30;;
15990;SDS011;8100;50.994;4.538;2022-07-29T06:22:33;1.77;;;1.08;;
15990;SDS011;8100;50.994;4.538;2022-07-29T06:25:20;2.42;;;1.60;;
15990;SDS011;8100;50.994;4.538;2022-07-29T06:28:08;2.90;;;1.67;;
15990;SDS011;8100;50.994;4.538;2022-07-29T06:30:55;2.05;;;1.35;;
15990;SDS011;8100;50.994;4.538;2022-07-29T06:33:43;1.67;;;1.25;;
15990;SDS011;8100;50.994;4.538;2022-07-29T06:36:33;1.30;;;1.20;;
15990;SDS011;8100;50.994;4.538;2022-07-29T06:39:21;1.85;;;1.33;;
15990;SDS011;8100;50.994;4.538;2022-07-29T06:42:08;5.32;;;1.67;;
15990;SDS011;8100;50.994;4.538;2022-07-29T06:44:56;3.40;;;1.55;;
15990;SDS011;8100;50.994;4.538;2022-07-29T06:47:44;2.40;;;1.60;;
15990;SDS011;8100;50.994;4.538;2022-07-29T06:50:32;2.78;;;1.50;;
15990;SDS011;8100;50.994;4.538;2022-07-29T06:53:20;1.95;;;1.40;;
15990;SDS011;8100;50.994;4.538;2022-07-29T06:56:07;2.38;;;1.40;;
15990;SDS011;8100;50.994;4.538;2022-07-29T06:58:55;2.17;;;1.42;;
15990;SDS011;8100;50.994;4.538;2022-07-29T07:01:42;1.90;;;1.27;;
15990;SDS011;8100;50.994;4.538;2022-07-29T07:04:29;2.60;;;1.75;;
15990;SDS011;8100;50.994;4.538;2022-07-29T07:07:18;2.78;;;1.35;;
15990;SDS011;8100;50.994;4.538;2022-07-29T07:10:06;2.38;;;1.73;;
15990;SDS011;8100;50.994;4.538;2022-07-29T07:12:54;2.60;;;1.48;;
15990;SDS011;8100;50.994;4.538;2022-07-29T07:15:41;2.60;;;1.70;;
15990;SDS011;8100;50.994;4.538;2022-07-29T07:18:28;1.65;;;1.20;;
15990;SDS011;8100;50.994;4.538;2022-07-29T07:21:15;2.70;;;1.60;;
15990;SDS011;8100;50.994;4.538;2022-07-29T07:24:04;2.72;;;1.30;;
15990;SDS011;8100;50.994;4.538;2022-07-29T07:26:52;2.53;;;1.50;;
15990;SDS011;8100;50.994;4.538;2022-07-29T07:29:40;2.20;;;1.35;;
15990;SDS011;8100;50.994;4.538;2022-07-29T07:32:28;1.70;;;1.27;;
15990;SDS011;8100;50.994;4.538;2022-07-29T07:35:15;2.55;;;1.63;;
15990;SDS011;8100;50.994;4.538;2022-07-29T07:38:03;1.65;;;1.35;;
15990;SDS011;8100;50.994;4.538;2022-07-29T07:40:52;4.05;;;1.33;;
15990;SDS011;8100;50.994;4.538;2022-07-29T07:43:40;1.83;;;1.30;;
15990;SDS011;8100;50.994;4.538;2022-07-29T07:46:27;3.53;;;1.50;;
15990;SDS011;8100;50.994;4.538;2022-07-29T07:49:14;2.17;;;1.30;;
15990;SDS011;8100;50.994;4.538;2022-07-29T07:52:02;1.67;;;1.38;;
15990;SDS011;8100;50.994;4.538;2022-07-29T07:54:49;1.65;;;1.30;;
15990;SDS011;8100;50.994;4.538;2022-07-29T07:57:38;1.48;;;1.25;;
15990;SDS011;8100;50.994;4.538;2022-07-29T08:00:25;2.55;;;1.45;;
15990;SDS011;8100;50.994;4.538;2022-07-29T08:03:13;1.48;;;1.30;;
15990;SDS011;8100;50.994;4.538;2022-07-29T08:06:00;1.67;;;1.35;;
15990;SDS011;8100;50.994;4.538;2022-07-29T08:08:47;1.73;;;1.30;;
15990;SDS011;8100;50.994;4.538;2022-07-29T08:11:35;3.28;;;1.90;;
15990;SDS011;8100;50.994;4.538;2022-07-29T08:14:23;3.70;;;1.70;;
15990;SDS011;8100;50.994;4.538;2022-07-29T08:17:11;3.90;;;1.42;;
15990;SDS011;8100;50.994;4.538;2022-07-29T08:19:58;2.45;;;1.63;;
15990;SDS011;8100;50.994;4.538;2022-07-29T08:22:45;2.45;;;1.60;;
15990;SDS011;8100;50.994;4.538;2022-07-29T08:25:32;2.10;;;1.58;;
15990;SDS011;8100;50.994;4.538;2022-07-29T08:28:20;1.73;;;1.38;;
15990;SDS011;8100;50.994;4.538;2022-07-29T08:31:09;4.53;;;1.70;;
15990;SDS011;8100;50.994;4.538;2022-07-29T08:33:56;2.75;;;1.65;;
15990;SDS011;8100;50.994;4.538;2022-07-29T08:36:45;2.38;;;1.60;;
15990;SDS011;8100;50.994;4.538;2022-07-29T08:39:32;1.92;;;1.33;;
15990;SDS011;8100;50.994;4.538;2022-07-29T08:42:21;2.60;;;1.38;;
15990;SDS011;8100;50.994;4.538;2022-07-29T08:45:08;1.90;;;1.48;;
15990;SDS011;8100;50.994;4.538;2022-07-29T08:47:57;1.70;;;1.40;;
15990;SDS011;8100;50.994;4.538;2022-07-29T08:50:46;3.17;;;1.50;;
15990;SDS011;8100;50.994;4.538;2022-07-29T08:53:34;2.85;;;1.73;;
15990;SDS011;8100;50.994;4.538;2022-07-29T08:56:23;1.63;;;1.15;;
15990;SDS011;8100;50.994;4.538;2022-07-29T08:59:11;3.42;;;1.63;;
15990;SDS011;8100;50.994;4.538;2022-07-29T09:01:59;2.42;;;1.58;;
15990;SDS011;8100;50.994;4.538;2022-07-29T09:04:48;4.45;;;1.83;;
15990;SDS011;8100;50.994;4.538;2022-07-29T09:07:36;2.22;;;1.42;;
15990;SDS011;8100;50.994;4.538;2022-07-29T09:10:25;1.65;;;1.23;;
15990;SDS011;8100;50.994;4.538;2022-07-29T09:13:12;1.30;;;1.20;;
15990;SDS011;8100;50.994;4.538;2022-07-29T09:16:00;3.30;;;1.70;;
15990;SDS011;8100;50.994;4.538;2022-07-29T09:18:47;1.88;;;1.45;;
15990;SDS011;8100;50.994;4.538;2022-07-29T09:21:41;1.73;;;1.13;;
15990;SDS011;8100;50.994;4.538;2022-07-29T09:24:42;1.90;;;1.30;;
15990;SDS011;8100;50.994;4.538;2022-07-29T09:27:32;2.75;;;1.38;;
15990;SDS011;8100;50.994;4.538;2022-07-29T09:30:19;2.22;;;1.48;;
15990;SDS011;8100;50.994;4.538;2022-07-29T09:33:07;2.60;;;1.30;;
15990;SDS011;8100;50.994;4.538;2022-07-29T09:35:58;1.98;;;1.38;;
15990;SDS011;8100;50.994;4.538;2022-07-29T09:38:55;1.95;;;1.27;;
15990;SDS011;8100;50.994;4.538;2022-07-29T09:41:45;1.77;;;1.23;;
15990;SDS011;8100;50.994;4.538;2022-07-29T09:44:43;1.52;;;1.10;;
15990;SDS011;8100;50.994;4.538;2022-07-29T09:47:40;1.25;;;0.90;;
15990;SDS011;8100;50.994;4.538;2022-07-29T09:50:36;2.50;;;0.80;;
15990;SDS011;8100;50.994;4.538;2022-07-29T09:53:31;1.50;;;1.10;;
15990;SDS011;8100;50.994;4.538;2022-07-29T09:56:24;1.00;;;0.88;;
15990;SDS011;8100;50.994;4.538;2022-07-29T09:59:24;1.33;;;1.10;;
15990;SDS011;8100;50.994;4.538;2022-07-29T10:02:13;2.67;;;1.20;;
15990;SDS011;8100;50.994;4.538;2022-07-29T10:05:04;1.23;;;1.00;;
15990;SDS011;8100;50.994;4.538;2022-07-29T10:07:54;1.48;;;1.10;;
15990;SDS011;8100;50.994;4.538;2022-07-29T10:10:42;2.30;;;1.25;;
15990;SDS011;8100;50.994;4.538;2022-07-29T10:13:31;4.10;;;1.00;;
15990;SDS011;8100;50.994;4.538;2022-07-29T10:16:18;1.60;;;1.10;;
15990;SDS011;8100;50.994;4.538;2022-07-29T10:19:05;1.02;;;0.88;;
15990;SDS011;8100;50.994;4.538;2022-07-29T10:21:53;1.30;;;0.88;;
15990;SDS011;8100;50.994;4.538;2022-07-29T10:24:40;2.60;;;1.17;;
15990;SDS011;8100;50.994;4.538;2022-07-29T10:27:27;1.52;;;1.23;;
15990;SDS011;8100;50.994;4.538;2022-07-29T10:30:16;4.93;;;1.33;;
15990;SDS011;8100;50.994;4.538;2022-07-29T10:33:14;1.77;;;1.02;;
15990;SDS011;8100;50.994;4.538;2022-07-29T10:36:15;1.58;;;0.95;;
15990;SDS011;8100;50.994;4.538;2022-07-29T10:39:17;2.50;;;0.98;;
15990;SDS011;8100;50.994;4.538;2022-07-29T10:42:14;1.30;;;1.17;;
15990;SDS011;8100;50.994;4.538;2022-07-29T10:45:04;1.85;;;1.00;;
15990;SDS011;8100;50.994;4.538;2022-07-29T10:48:03;2.08;;;1.10;;
15990;SDS011;8100;50.994;4.538;2022-07-29T10:50:52;0.85;;;0.80;;
15990;SDS011;8100;50.994;4.538;2022-07-29T10:53:48;1.02;;;0.93;;
15990;SDS011;8100;50.994;4.538;2022-07-29T10:56:37;1.00;;;1.00;;
15990;SDS011;8100;50.994;4.538;2022-07-29T10:59:25;1.58;;;1.10;;
15990;SDS011;8100;50.994;4.538;2022-07-29T11:05:31;1.10;;;1.00;;
15990;SDS011;8100;50.994;4.538;2022-07-29T11:08:38;3.08;;;0.98;;
15990;SDS011;8100;50.994;4.538;2022-07-29T11:11:32;1.20;;;0.90;;
15990;SDS011;8100;50.994;4.538;2022-07-29T11:20:55;2.20;;;1.00;;
15990;SDS011;8100;50.994;4.538;2022-07-29T11:23:42;1.88;;;0.90;;
15990;SDS011;8100;50.994;4.538;2022-07-29T11:26:30;2.55;;;1.10;;
15990;SDS011;8100;50.994;4.538;2022-07-29T11:29:19;2.50;;;1.30;;
15990;SDS011;8100;50.994;4.538;2022-07-29T11:32:08;1.40;;;0.90;;
15990;SDS011;8100;50.994;4.538;2022-07-29T11:35:10;2.63;;;1.10;;
15990;SDS011;8100;50.994;4.538;2022-07-29T11:41:22;1.42;;;1.00;;
15990;SDS011;8100;50.994;4.538;2022-07-29T11:44:10;3.25;;;1.52;;
15990;SDS011;8100;50.994;4.538;2022-07-29T11:46:58;2.67;;;1.13;;
15990;SDS011;8100;50.994;4.538;2022-07-29T11:49:45;2.80;;;1.35;;
15990;SDS011;8100;50.994;4.538;2022-07-29T11:52:32;1.42;;;1.00;;
15990;SDS011;8100;50.994;4.538;2022-07-29T11:55:24;1.23;;;1.10;;
15990;SDS011;8100;50.994;4.538;2022-07-29T11:58:12;3.70;;;1.00;;
15990;SDS011;8100;50.994;4.538;2022-07-29T12:00:59;1.77;;;1.10;;
15990;SDS011;8100;50.994;4.538;2022-07-29T12:03:47;1.92;;;1.00;;
15990;SDS011;8100;50.994;4.538;2022-07-29T12:06:35;2.10;;;1.00;;
15990;SDS011;8100;50.994;4.538;2022-07-29T12:09:22;1.90;;;1.08;;
15990;SDS011;8100;50.994;4.538;2022-07-29T12:12:11;1.17;;;1.05;;
15990;SDS011;8100;50.994;4.538;2022-07-29T12:15:13;1.63;;;1.23;;
15990;SDS011;8100;50.994;4.538;2022-07-29T12:18:09;1.05;;;0.95;;
15990;SDS011;8100;50.994;4.538;2022-07-29T12:20:57;1.60;;;1.25;;
15990;SDS011;8100;50.994;4.538;2022-07-29T12:23:51;1.35;;;1.25;;
15990;SDS011;8100;50.994;4.538;2022-07-29T12:26:48;1.13;;;1.02;;
15990;SDS011;8100;50.994;4.538;2022-07-29T12:29:37;2.10;;;1.35;;
15990;SDS011;8100;50.994;4.538;2022-07-29T12:32:30;1.48;;;1.02;;
15990;SDS011;8100;50.994;4.538;2022-07-29T12:35:19;4.32;;;1.67;;
15990;SDS011;8100;50.994;4.538;2022-07-29T12:38:08;4.13;;;1.50;;
15990;SDS011;8100;50.994;4.538;2022-07-29T12:40:56;1.63;;;1.15;;
15990;SDS011;8100;50.994;4.538;2022-07-29T12:43:53;3.60;;;1.40;;
15990;SDS011;8100;50.994;4.538;2022-07-29T12:46:42;1.83;;;1.13;;
15990;SDS011;8100;50.994;4.538;2022-07-29T12:49:31;2.67;;;1.27;;
15990;SDS011;8100;50.994;4.538;2022-07-29T12:52:26;2.58;;;1.40;;
15990;SDS011;8100;50.994;4.538;2022-07-29T12:55:14;1.60;;;1.20;;
15990;SDS011;8100;50.994;4.538;2022-07-29T12:58:01;1.75;;;1.20;;
15990;SDS011;8100;50.994;4.538;2022-07-29T13:00:57;4.03;;;1.10;;
15990;SDS011;8100;50.994;4.538;2022-07-29T13:03:51;1.25;;;0.90;;
15990;SDS011;8100;50.994;4.538;2022-07-29T13:06:40;2.97;;;1.50;;
15990;SDS011;8100;50.994;4.538;2022-07-29T13:09:35;2.20;;;1.13;;
15990;SDS011;8100;50.994;4.538;2022-07-29T13:12:23;3.17;;;1.30;;
15990;SDS011;8100;50.994;4.538;2022-07-29T13:15:14;2.28;;;1.77;;
15990;SDS011;8100;50.994;4.538;2022-07-29T13:18:01;4.13;;;1.70;;
15990;SDS011;8100;50.994;4.538;2022-07-29T13:20:50;2.15;;;1.65;;
15990;SDS011;8100;50.994;4.538;2022-07-29T13:23:38;3.60;;;2.08;;
15990;SDS011;8100;50.994;4.538;2022-07-29T13:26:25;2.13;;;1.90;;
15990;SDS011;8100;50.994;4.538;2022-07-29T13:29:13;2.65;;;1.80;;
15990;SDS011;8100;50.994;4.538;2022-07-29T13:32:00;4.25;;;2.50;;
15990;SDS011;8100;50.994;4.538;2022-07-29T13:34:47;2.63;;;2.20;;
15990;SDS011;8100;50.994;4.538;2022-07-29T13:37:36;4.25;;;2.65;;
15990;SDS011;8100;50.994;4.538;2022-07-29T13:40:24;2.72;;;2.20;;
15990;SDS011;8100;50.994;4.538;2022-07-29T13:43:11;2.92;;;2.30;;
15990;SDS011;8100;50.994;4.538;2022-07-29T13:45:59;2.00;;;1.80;;
15990;SDS011;8100;50.994;4.538;2022-07-29T13:48:46;4.72;;;2.25;;
15990;SDS011;8100;50.994;4.538;2022-07-29T13:51:33;2.58;;;1.95;;
15990;SDS011;8100;50.994;4.538;2022-07-29T13:54:21;2.83;;;2.35;;
15990;SDS011;8100;50.994;4.538;2022-07-29T13:57:09;3.35;;;2.10;;
15990;SDS011;8100;50.994;4.538;2022-07-29T13:59:57;4.93;;;2.10;;
15990;SDS011;8100;50.994;4.538;2022-07-29T14:02:44;2.40;;;1.40;;
15990;SDS011;8100;50.994;4.538;2022-07-29T14:05:32;2.78;;;1.30;;
15990;SDS011;8100;50.994;4.538;2022-07-29T14:08:19;1.17;;;1.08;;
15990;SDS011;8100;50.994;4.538;2022-07-29T14:11:07;1.25;;;1.15;;
15990;SDS011;8100;50.994;4.538;2022-07-29T14:13:55;3.50;;;1.67;;
15990;SDS011;8100;50.994;4.538;2022-07-29T14:16:42;2.22;;;1.42;;
15990;SDS011;8100;50.994;4.538;2022-07-29T14:19:29;2.00;;;1.60;;
15990;SDS011;8100;50.994;4.538;2022-07-29T14:22:20;2.60;;;1.40;;
15990;SDS011;8100;50.994;4.538;2022-07-29T14:25:08;3.20;;;1.60;;
15990;SDS011;8100;50.994;4.538;2022-07-29T14:27:56;3.28;;;1.55;;
15990;SDS011;8100;50.994;4.538;2022-07-29T14:30:44;2.53;;;1.65;;
15990;SDS011;8100;50.994;4.538;2022-07-29T14:33:31;3.28;;;1.52;;
15990;SDS011;8100;50.994;4.538;2022-07-29T14:36:18;6.45;;;1.40;;
15990;SDS011;8100;50.994;4.538;2022-07-29T14:39:05;1.75;;;1.45;;
15990;SDS011;8100;50.994;4.538;2022-07-29T14:41:53;2.40;;;1.38;;
15990;SDS011;8100;50.994;4.538;2022-07-29T14:44:41;1.73;;;1.50;;
15990;SDS011;8100;50.994;4.538;2022-07-29T14:47:28;3.53;;;1.25;;
15990;SDS011;8100;50.994;4.538;2022-07-29T14:50:16;2.45;;;1.13;;
15990;SDS011;8100;50.994;4.538;2022-07-29T14:53:03;2.50;;;1.35;;
15990;SDS011;8100;50.994;4.538;2022-07-29T14:55:51;3.97;;;1.60;;
15990;SDS011;8100;50.994;4.538;2022-07-29T14:58:38;2.30;;;1.30;;
15990;SDS011;8100;50.994;4.538;2022-07-29T15:01:26;1.35;;;1.05;;
15990;SDS011;8100;50.994;4.538;2022-07-29T15:04:14;2.45;;;1.02;;
15990;SDS011;8100;50.994;4.538;2022-07-29T15:07:01;2.53;;;1.10;;
15990;SDS011;8100;50.994;4.538;2022-07-29T15:09:49;1.92;;;1.17;;
15990;SDS011;8100;50.994;4.538;2022-07-29T15:12:36;1.45;;;0.88;;
15990;SDS011;8100;50.994;4.538;2022-07-29T15:15:23;1.63;;;1.30;;
15990;SDS011;8100;50.994;4.538;2022-07-29T15:18:12;2.28;;;1.30;;
15990;SDS011;8100;50.994;4.538;2022-07-29T15:20:59;3.17;;;1.40;;
15990;SDS011;8100;50.994;4.538;2022-07-29T15:23:47;2.55;;;1.27;;
15990;SDS011;8100;50.994;4.538;2022-07-29T15:26:34;2.17;;;1.30;;
15990;SDS011;8100;50.994;4.538;2022-07-29T15:29:22;3.30;;;1.50;;
15990;SDS011;8100;50.994;4.538;2022-07-29T15:32:09;1.75;;;1.27;;
15990;SDS011;8100;50.994;4.538;2022-07-29T15:34:58;1.30;;;1.20;;
15990;SDS011;8100;50.994;4.538;2022-07-29T15:37:45;2.28;;;1.35;;
15990;SDS011;8100;50.994;4.538;2022-07-29T15:40:33;2.88;;;1.38;;
15990;SDS011;8100;50.994;4.538;2022-07-29T15:43:22;2.92;;;1.60;;
15990;SDS011;8100;50.994;4.538;2022-07-29T15:46:12;3.58;;;1.80;;
15990;SDS011;8100;50.994;4.538;2022-07-29T15:49:17;3.35;;;1.55;;
15990;SDS011;8100;50.994;4.538;2022-07-29T15:52:06;1.50;;;1.40;;
15990;SDS011;8100;50.994;4.538;2022-07-29T15:54:54;3.13;;;1.90;;
15990;SDS011;8100;50.994;4.538;2022-07-29T15:57:42;1.77;;;1.42;;
15990;SDS011;8100;50.994;4.538;2022-07-29T16:00:29;2.58;;;1.40;;
15990;SDS011;8100;50.994;4.538;2022-07-29T16:03:17;1.45;;;1.30;;
15990;SDS011;8100;50.994;4.538;2022-07-29T16:06:08;1.45;;;1.30;;
15990;SDS011;8100;50.994;4.538;2022-07-29T16:08:58;3.50;;;1.60;;
15990;SDS011;8100;50.994;4.538;2022-07-29T16:11:46;1.55;;;1.30;;
15990;SDS011;8100;50.994;4.538;2022-07-29T16:14:35;3.58;;;1.42;;
15990;SDS011;8100;50.994;4.538;2022-07-29T16:17:22;1.65;;;1.33;;
15990;SDS011;8100;50.994;4.538;2022-07-29T16:20:10;2.75;;;1.33;;
15990;SDS011;8100;50.994;4.538;2022-07-29T16:22:57;1.60;;;1.35;;
15990;SDS011;8100;50.994;4.538;2022-07-29T16:25:46;2.15;;;1.67;;
15990;SDS011;8100;50.994;4.538;2022-07-29T16:28:34;1.30;;;1.20;;
15990;SDS011;8100;50.994;4.538;2022-07-29T16:31:22;2.13;;;1.50;;
15990;SDS011;8100;50.994;4.538;2022-07-29T16:34:09;1.77;;;1.60;;
15990;SDS011;8100;50.994;4.538;2022-07-29T16:36:56;2.20;;;1.38;;
15990;SDS011;8100;50.994;4.538;2022-07-29T16:39:44;2.15;;;1.50;;
15990;SDS011;8100;50.994;4.538;2022-07-29T16:42:32;2.50;;;1.48;;
15990;SDS011;8100;50.994;4.538;2022-07-29T16:45:20;2.45;;;1.67;;
15990;SDS011;8100;50.994;4.538;2022-07-29T16:48:07;2.20;;;1.63;;
15990;SDS011;8100;50.994;4.538;2022-07-29T16:50:55;2.97;;;1.70;;
15990;SDS011;8100;50.994;4.538;2022-07-29T16:53:42;1.98;;;1.58;;
15990;SDS011;8100;50.994;4.538;2022-07-29T16:56:30;1.95;;;1.67;;
15990;SDS011;8100;50.994;4.538;2022-07-29T16:59:18;2.15;;;1.50;;
15990;SDS011;8100;50.994;4.538;2022-07-29T17:02:06;4.70;;;1.50;;
15990;SDS011;8100;50.994;4.538;2022-07-29T17:04:53;1.80;;;1.50;;
15990;SDS011;8100;50.994;4.538;2022-07-29T17:07:40;2.13;;;1.88;;
15990;SDS011;8100;50.994;4.538;2022-07-29T17:10:28;2.33;;;1.73;;
15990;SDS011;8100;50.994;4.538;2022-07-29T17:13:15;2.38;;;1.80;;
15990;SDS011;8100;50.994;4.538;2022-07-29T17:16:04;1.90;;;1.20;;
15990;SDS011;8100;50.994;4.538;2022-07-29T17:18:52;4.20;;;1.85;;
15990;SDS011;8100;50.994;4.538;2022-07-29T17:21:40;2.33;;;1.23;;
15990;SDS011;8100;50.994;4.538;2022-07-29T17:24:27;2.25;;;1.60;;
15990;SDS011;8100;50.994;4.538;2022-07-29T17:27:15;1.65;;;1.52;;
15990;SDS011;8100;50.994;4.538;2022-07-29T17:30:03;1.50;;;1.40;;